createdAt,value
2023-03-29T00:01:35.210Z,65.65
2023-03-29T00:04:06.292Z,66.12
2023-03-29T00:06:33.610Z,66.09
2023-03-29T00:09:01.801Z,66.16
2023-03-29T00:11:28.362Z,66.42
2023-03-29T00:13:54.911Z,65.68
2023-03-29T00:16:21.425Z,65.15
2023-03-29T00:18:48.062Z,64.94
2023-03-29T00:21:14.519Z,65.68
2023-03-29T00:23:41.086Z,65.74
2023-03-29T00:26:08.378Z,65.65
2023-03-29T00:28:35.581Z,65.89
2023-03-29T00:31:14.106Z,66.41
2023-03-29T00:33:41.428Z,66.30
2023-03-29T00:36:09.081Z,66.57
2023-03-29T00:38:36.050Z,65.92
2023-03-29T00:41:04.300Z,67.13
2023-03-29T00:43:31.034Z,67.26
2023-03-29T00:45:57.485Z,67.79
2023-03-29T00:48:27.921Z,68.49
2023-03-29T00:51:03.476Z,68.99
2023-03-29T00:53:34.475Z,68.73
2023-03-29T00:56:06.313Z,68.12
2023-03-29T00:58:57.180Z,67.81
2023-03-29T01:01:35.509Z,67.77
2023-03-29T01:04:18.158Z,68.13
2023-03-29T01:07:01.270Z,67.53
2023-03-29T01:09:31.092Z,68.28
2023-03-29T01:12:01.636Z,67.83
2023-03-29T01:14:43.753Z,68.16
2023-03-29T01:17:10.917Z,68.32
2023-03-29T01:19:44.382Z,67.97
2023-03-29T01:22:51.339Z,68.48
2023-03-29T01:25:45.450Z,68.13
2023-03-29T01:28:17.544Z,68.27
2023-03-29T01:30:49.890Z,68.38
2023-03-29T01:33:24.572Z,68.42
2023-03-29T01:36:09.608Z,68.46
2023-03-29T01:38:43.152Z,67.66
2023-03-29T01:41:10.978Z,67.52
2023-03-29T01:43:40.561Z,67.62
2023-03-29T01:46:27.754Z,67.09
2023-03-29T01:49:11.143Z,67.75
2023-03-29T01:51:42.381Z,67.32
2023-03-29T01:54:44.487Z,67.63
2023-03-29T01:57:12.349Z,67.54
2023-03-29T01:59:42.380Z,67.63
2023-03-29T02:02:14.663Z,67.38
2023-03-29T02:04:48.021Z,67.69
2023-03-29T02:07:17.066Z,67.21
2023-03-29T02:09:45.198Z,67.10
2023-03-29T02:12:13.621Z,66.94
2023-03-29T02:14:40.453Z,67.38
2023-03-29T02:17:23.542Z,67.13
2023-03-29T02:19:59.339Z,67.04
2023-03-29T02:22:36.630Z,68.03
2023-03-29T02:25:08.331Z,68.17
2023-03-29T02:27:37.733Z,67.63
2023-03-29T02:30:06.652Z,67.64
2023-03-29T02:32:49.356Z,68.00
2023-03-29T02:35:34.468Z,67.41
2023-03-29T02:38:04.718Z,67.87
2023-03-29T02:40:33.233Z,67.06
2023-03-29T02:43:02.063Z,67.21
2023-03-29T02:45:30.039Z,67.35
2023-03-29T02:48:00.468Z,68.00
2023-03-29T02:50:37.637Z,67.52
2023-03-29T02:53:10.251Z,67.88
2023-03-29T02:55:38.945Z,68.00
2023-03-29T02:58:08.440Z,67.40
2023-03-29T03:00:42.091Z,67.66
2023-03-29T03:03:10.323Z,68.17
2023-03-29T03:05:37.303Z,68.77
2023-03-29T03:08:04.969Z,68.04
2023-03-29T03:10:33.218Z,68.27
2023-03-29T03:12:59.662Z,68.49
2023-03-29T03:15:26.394Z,68.37
2023-03-29T03:17:54.429Z,68.37
2023-03-29T03:20:23.875Z,68.52
2023-03-29T03:22:50.487Z,67.86
2023-03-29T03:25:20.694Z,67.93
2023-03-29T03:27:49.089Z,65.78
2023-03-29T03:30:16.630Z,65.45
2023-03-29T03:32:49.363Z,65.30
2023-03-29T03:35:16.264Z,65.28
2023-03-29T03:37:42.955Z,65.18
2023-03-29T03:40:11.674Z,65.72
2023-03-29T03:42:39.306Z,65.33
2023-03-29T03:45:06.395Z,65.05
2023-03-29T03:47:32.838Z,65.16
2023-03-29T03:49:59.515Z,65.35
2023-03-29T03:52:26.957Z,65.38
2023-03-29T03:54:53.428Z,65.74
2023-03-29T03:57:19.951Z,66.36
2023-03-29T03:59:46.562Z,67.04
2023-03-29T04:02:13.065Z,66.63
2023-03-29T04:04:40.537Z,66.17
2023-03-29T04:07:07.530Z,66.76
2023-03-29T04:09:34.411Z,67.62
2023-03-29T04:12:01.621Z,67.14
2023-03-29T04:14:28.459Z,67.09
2023-03-29T04:16:55.500Z,67.17
2023-03-29T04:19:22.070Z,66.91
2023-03-29T04:21:49.603Z,67.28
2023-03-29T04:24:17.231Z,68.35
2023-03-29T04:26:44.303Z,67.43
2023-03-29T04:29:10.915Z,67.18
2023-03-29T04:31:37.533Z,67.61
2023-03-29T04:34:04.483Z,67.73
2023-03-29T04:36:30.966Z,67.60
2023-03-29T04:38:58.581Z,67.72
2023-03-29T04:41:25.125Z,67.58
2023-03-29T04:43:52.029Z,67.98
2023-03-29T04:46:18.560Z,67.20
2023-03-29T04:48:45.098Z,68.18
2023-03-29T04:51:11.684Z,68.00
2023-03-29T04:53:38.209Z,68.78
2023-03-29T04:56:05.047Z,69.23
2023-03-29T04:58:32.426Z,68.83
2023-03-29T05:00:59.471Z,69.59
2023-03-29T05:03:27.021Z,69.29
2023-03-29T05:05:53.684Z,69.09
2023-03-29T05:08:20.133Z,69.69
2023-03-29T05:10:47.597Z,69.37
2023-03-29T05:13:14.084Z,69.67
2023-03-29T05:15:41.784Z,70.29
2023-03-29T05:18:08.297Z,70.44
2023-03-29T05:20:34.903Z,70.02
2023-03-29T05:23:01.441Z,70.14
2023-03-29T05:25:28.180Z,69.76
2023-03-29T05:27:55.303Z,69.25
2023-03-29T05:30:22.464Z,69.11
2023-03-29T05:32:49.202Z,69.50
2023-03-29T05:35:16.072Z,69.33
2023-03-29T05:37:42.542Z,69.08
2023-03-29T05:40:09.898Z,69.61
2023-03-29T05:42:38.011Z,69.38
2023-03-29T05:45:05.079Z,69.53
2023-03-29T05:47:31.731Z,69.93
2023-03-29T05:49:58.265Z,69.56
2023-03-29T05:52:24.815Z,70.23
2023-03-29T05:54:51.542Z,70.20
2023-03-29T05:57:18.051Z,70.75
2023-03-29T05:59:44.888Z,70.44
2023-03-29T06:02:12.317Z,70.31
2023-03-29T06:04:39.992Z,70.01
2023-03-29T06:07:12.827Z,70.08
2023-03-29T06:09:46.123Z,69.98
2023-03-29T06:12:14.071Z,69.73
2023-03-29T06:14:40.723Z,69.34
2023-03-29T06:17:07.279Z,69.13
2023-03-29T06:19:33.992Z,69.86
2023-03-29T06:22:00.651Z,70.07
2023-03-29T06:24:27.167Z,70.99
2023-03-29T06:26:53.708Z,70.85
2023-03-29T06:29:20.238Z,70.72
2023-03-29T06:31:46.788Z,70.80
2023-03-29T06:34:13.781Z,70.80
2023-03-29T06:36:40.218Z,70.47
2023-03-29T06:39:06.646Z,71.00
2023-03-29T06:41:33.145Z,70.34
2023-03-29T06:43:59.679Z,70.60
2023-03-29T06:46:26.219Z,70.99
2023-03-29T06:48:53.291Z,71.76
2023-03-29T06:51:21.912Z,71.15
2023-03-29T06:53:49.732Z,71.11
2023-03-29T06:56:17.603Z,70.83
2023-03-29T06:58:44.971Z,71.34
2023-03-29T07:01:11.503Z,72.02
2023-03-29T07:03:39.365Z,70.77
2023-03-29T07:06:10.083Z,70.09
2023-03-29T07:08:47.369Z,70.10
2023-03-29T07:11:15.066Z,70.15
2023-03-29T07:13:42.595Z,69.70
2023-03-29T07:16:13.823Z,69.24
2023-03-29T07:18:41.752Z,69.16
2023-03-29T07:21:09.415Z,69.43
2023-03-29T07:23:36.096Z,68.62
2023-03-29T07:26:02.676Z,68.89
2023-03-29T07:28:29.715Z,67.58
2023-03-29T07:31:07.202Z,67.43
2023-03-29T07:33:34.467Z,67.42
2023-03-29T07:36:01.955Z,67.17
2023-03-29T07:38:28.621Z,66.85
2023-03-29T07:40:55.126Z,66.74
2023-03-29T07:43:21.975Z,67.06
2023-03-29T07:45:48.662Z,66.48
2023-03-29T07:48:15.810Z,67.00
2023-03-29T07:50:43.212Z,66.74
2023-03-29T07:53:10.251Z,66.93
2023-03-29T07:55:37.092Z,66.21
2023-03-29T07:58:04.310Z,65.94
2023-03-29T08:00:30.819Z,66.95
2023-03-29T08:02:57.573Z,66.63
2023-03-29T08:05:37.907Z,66.52
2023-03-29T08:08:07.388Z,67.13
2023-03-29T08:10:34.273Z,66.53
2023-03-29T08:13:01.020Z,66.75
2023-03-29T08:15:28.029Z,66.53
2023-03-29T08:17:54.692Z,65.54
2023-03-29T08:20:21.303Z,66.13
2023-03-29T08:22:48.809Z,65.49
2023-03-29T08:25:15.285Z,65.96
2023-03-29T08:27:42.430Z,65.76
2023-03-29T08:30:09.568Z,64.95
2023-03-29T08:32:37.497Z,65.21
2023-03-29T08:35:06.647Z,64.76
2023-03-29T08:37:33.285Z,64.76
2023-03-29T08:40:01.042Z,64.44
2023-03-29T08:42:36.784Z,64.55
2023-03-29T08:45:31.526Z,64.09
2023-03-29T08:48:22.876Z,65.12
2023-03-29T08:50:53.859Z,64.54
2023-03-29T08:53:29.106Z,64.70
2023-03-29T08:55:56.986Z,63.79
2023-03-29T08:58:29.103Z,64.39
2023-03-29T09:00:58.641Z,63.21
2023-03-29T09:03:38.097Z,62.94
2023-03-29T09:06:08.708Z,63.05
2023-03-29T09:08:39.033Z,63.22
2023-03-29T09:11:23.954Z,63.35
2023-03-29T09:14:15.733Z,62.83
2023-03-29T09:16:58.413Z,62.15
2023-03-29T09:19:42.635Z,62.23
2023-03-29T09:22:28.018Z,62.96
2023-03-29T09:24:54.434Z,62.23
2023-03-29T09:27:26.720Z,61.97
2023-03-29T09:30:06.130Z,61.99
2023-03-29T09:32:39.457Z,61.35
2023-03-29T09:35:37.142Z,60.31
2023-03-29T09:38:07.679Z,61.90
2023-03-29T09:40:44.499Z,60.70
2023-03-29T09:43:18.352Z,61.17
2023-03-29T09:45:53.061Z,59.87
2023-03-29T09:48:20.767Z,60.12
2023-03-29T09:50:51.359Z,60.43
2023-03-29T09:53:19.534Z,59.94
2023-03-29T09:55:50.324Z,60.51
2023-03-29T09:58:22.515Z,60.15
2023-03-29T10:00:50.032Z,57.67
2023-03-29T10:03:35.031Z,59.15
2023-03-29T10:06:03.619Z,59.43
2023-03-29T10:08:36.778Z,58.99
2023-03-29T10:11:14.657Z,59.26
2023-03-29T10:13:49.207Z,59.17
2023-03-29T10:16:25.719Z,59.00
2023-03-29T10:18:54.569Z,59.44
2023-03-29T10:21:22.039Z,59.43
2023-03-29T10:23:50.228Z,58.61
2023-03-29T10:26:32.605Z,58.81
2023-03-29T10:29:01.765Z,59.38
2023-03-29T10:31:32.901Z,59.44
2023-03-29T10:34:06.400Z,59.23
2023-03-29T10:36:33.263Z,59.12
2023-03-29T10:39:05.114Z,58.95
2023-03-29T10:41:34.627Z,57.32
2023-03-29T10:44:02.053Z,56.21
2023-03-29T10:46:30.260Z,56.71
2023-03-29T10:49:02.569Z,57.25
2023-03-29T10:51:32.498Z,55.34
2023-03-29T10:53:59.545Z,55.04
2023-03-29T10:56:39.077Z,52.58
2023-03-29T10:59:31.648Z,52.93
2023-03-29T11:02:42.189Z,51.57
2023-03-29T11:05:24.641Z,51.08
2023-03-29T11:08:14.897Z,49.99
2023-03-29T11:10:55.888Z,49.71
2023-03-29T11:13:31.489Z,51.55
2023-03-29T11:16:13.358Z,51.60
2023-03-29T11:19:03.679Z,53.17
2023-03-29T11:21:51.576Z,53.66
2023-03-29T11:24:33.931Z,55.22
2023-03-29T11:27:16.102Z,54.46
2023-03-29T11:29:58.615Z,54.29
2023-03-29T11:32:41.278Z,53.01
2023-03-29T11:35:29.981Z,53.38
2023-03-29T11:38:10.163Z,53.93
2023-03-29T11:41:02.766Z,52.74
2023-03-29T11:43:35.463Z,52.13
2023-03-29T11:46:23.587Z,52.21
2023-03-29T11:48:52.827Z,52.47
2023-03-29T11:51:37.912Z,53.41
2023-03-29T11:54:23.947Z,52.42
2023-03-29T11:56:59.541Z,52.24
2023-03-29T12:00:12.279Z,52.56
2023-03-29T12:02:50.868Z,52.64
2023-03-29T12:05:27.344Z,51.53
2023-03-29T12:08:02.017Z,51.40
2023-03-29T12:10:54.445Z,51.43
2023-03-29T12:13:23.886Z,52.85
2023-03-29T12:16:00.266Z,50.66
2023-03-29T12:18:41.060Z,51.11
2023-03-29T12:21:13.255Z,51.05
2023-03-29T12:23:41.976Z,50.63
2023-03-29T12:26:34.821Z,51.45
2023-03-29T12:29:25.543Z,50.39
2023-03-29T12:32:28.442Z,50.20
2023-03-29T12:35:26.984Z,50.66
2023-03-29T12:38:16.232Z,51.85
2023-03-29T12:40:46.396Z,50.68
2023-03-29T12:43:26.180Z,50.92
2023-03-29T12:46:14.508Z,52.08
2023-03-29T12:48:42.613Z,51.42
2023-03-29T12:51:16.095Z,50.89
2023-03-29T12:54:08.517Z,51.59
2023-03-29T12:56:41.504Z,51.63
2023-03-29T12:59:11.608Z,52.04
2023-03-29T13:01:41.487Z,50.90
2023-03-29T13:04:21.616Z,50.79
2023-03-29T13:07:05.708Z,51.74
2023-03-29T13:09:55.032Z,51.07
2023-03-29T13:12:40.504Z,50.91
2023-03-29T13:15:18.958Z,51.56
2023-03-29T13:18:03.605Z,51.07
2023-03-29T13:20:42.154Z,51.73
2023-03-29T13:23:37.781Z,51.19
2023-03-29T13:26:42.748Z,50.28
2023-03-29T13:29:17.136Z,51.07
2023-03-29T13:31:51.802Z,49.59
2023-03-29T13:34:37.686Z,49.49
2023-03-29T13:37:33.871Z,49.54
2023-03-29T13:40:00.382Z,48.82
2023-03-29T13:42:32.955Z,48.70
2023-03-29T13:45:13.193Z,49.57
2023-03-29T13:47:58.818Z,49.86
2023-03-29T13:50:57.146Z,49.47
2023-03-29T13:53:45.648Z,48.82
2023-03-29T13:56:19.624Z,49.63
2023-03-29T13:58:53.505Z,49.24
2023-03-29T14:01:36.366Z,50.55
2023-03-29T14:04:05.987Z,50.43
2023-03-29T14:06:37.150Z,49.66
2023-03-29T14:09:07.182Z,47.63
2023-03-29T14:11:34.692Z,48.34
2023-03-29T14:14:05.485Z,48.11
2023-03-29T14:16:36.812Z,49.75
2023-03-29T14:19:07.590Z,50.15
2023-03-29T14:21:34.183Z,51.11
2023-03-29T14:24:02.282Z,51.75
2023-03-29T14:26:34.502Z,51.88
2023-03-29T14:29:02.458Z,51.02
2023-03-29T14:31:37.246Z,51.19
2023-03-29T14:34:06.663Z,51.28
2023-03-29T14:36:33.802Z,51.38
2023-03-29T14:39:05.466Z,51.98
2023-03-29T14:41:34.335Z,51.81
2023-03-29T14:44:01.495Z,51.83
2023-03-29T14:46:28.213Z,52.01
2023-03-29T14:48:56.346Z,51.70
2023-03-29T14:51:28.553Z,52.77
2023-03-29T14:54:05.546Z,53.14
2023-03-29T14:56:33.194Z,53.31
2023-03-29T14:59:03.560Z,54.06
2023-03-29T15:01:30.193Z,53.74
2023-03-29T15:04:01.969Z,54.20
2023-03-29T15:06:29.927Z,54.10
2023-03-29T15:09:06.211Z,55.14
2023-03-29T15:11:34.465Z,54.83
2023-03-29T15:14:05.889Z,56.00
2023-03-29T15:16:33.658Z,55.47
2023-03-29T15:19:01.836Z,56.00
2023-03-29T15:21:34.337Z,56.59
2023-03-29T15:24:04.113Z,57.08
2023-03-29T15:26:31.660Z,56.05
2023-03-29T15:29:23.605Z,57.09
2023-03-29T15:31:57.619Z,57.32
2023-03-29T15:34:27.000Z,57.58
2023-03-29T15:36:54.290Z,58.04
2023-03-29T15:39:20.916Z,59.74
2023-03-29T15:41:50.226Z,60.30
2023-03-29T15:44:18.037Z,61.32
2023-03-29T15:46:44.835Z,60.88
2023-03-29T15:49:12.357Z,62.15
2023-03-29T15:51:39.714Z,62.51
2023-03-29T15:54:06.458Z,62.85
2023-03-29T15:56:37.816Z,63.40
2023-03-29T15:59:04.751Z,62.85
2023-03-29T16:01:34.599Z,63.30
2023-03-29T16:04:03.113Z,64.24
2023-03-29T16:06:30.305Z,63.04
2023-03-29T16:08:57.516Z,63.79
2023-03-29T16:11:24.626Z,63.72
2023-03-29T16:13:51.453Z,63.69
2023-03-29T16:16:18.073Z,63.32
2023-03-29T16:18:44.631Z,63.27
2023-03-29T16:21:15.935Z,62.95
2023-03-29T16:23:42.924Z,63.00
2023-03-29T16:26:12.137Z,62.67
2023-03-29T16:28:38.721Z,63.44
2023-03-29T16:31:06.129Z,64.02
2023-03-29T16:33:32.875Z,62.58
2023-03-29T16:35:59.387Z,63.41
2023-03-29T16:38:25.884Z,62.83
2023-03-29T16:40:52.605Z,62.60
2023-03-29T16:43:19.555Z,62.59
2023-03-29T16:45:46.298Z,62.69
2023-03-29T16:48:18.005Z,62.60
2023-03-29T16:50:49.374Z,62.55
2023-03-29T16:53:16.814Z,62.54
2023-03-29T16:55:45.645Z,62.88
2023-03-29T16:58:12.110Z,63.29
2023-03-29T17:00:38.622Z,62.60
2023-03-29T17:03:05.301Z,62.69
2023-03-29T17:05:33.341Z,62.74
2023-03-29T17:07:59.944Z,62.81
2023-03-29T17:10:26.387Z,61.88
2023-03-29T17:12:52.859Z,62.26
2023-03-29T17:15:19.348Z,61.96
2023-03-29T17:17:46.011Z,62.44
2023-03-29T17:20:12.658Z,62.25
2023-03-29T17:22:40.335Z,62.21
2023-03-29T17:25:08.291Z,62.08
2023-03-29T17:27:37.288Z,62.75
2023-03-29T17:30:05.642Z,63.07
2023-03-29T17:32:32.372Z,63.37
2023-03-29T17:34:59.364Z,64.03
2023-03-29T17:37:27.792Z,64.20
2023-03-29T17:39:54.606Z,64.72
2023-03-29T17:42:21.191Z,64.88
2023-03-29T17:44:47.636Z,65.21
2023-03-29T17:47:14.167Z,65.32
2023-03-29T17:49:40.594Z,65.67
2023-03-29T17:52:07.080Z,65.53
2023-03-29T17:54:33.558Z,66.63
2023-03-29T17:57:00.152Z,66.05
2023-03-29T17:59:26.809Z,66.51
2023-03-29T18:01:53.479Z,66.81
2023-03-29T18:04:20.032Z,66.97
2023-03-29T18:06:46.494Z,67.55
2023-03-29T18:09:13.153Z,67.31
2023-03-29T18:11:39.640Z,66.76
2023-03-29T18:14:06.344Z,67.48
2023-03-29T18:16:33.098Z,67.02
2023-03-29T18:18:59.754Z,67.10
2023-03-29T18:21:27.413Z,66.97
2023-03-29T18:23:56.644Z,66.95
2023-03-29T18:26:23.517Z,67.33
2023-03-29T18:28:50.897Z,67.53
2023-03-29T18:31:19.069Z,67.57
2023-03-29T18:33:46.820Z,67.88
2023-03-29T18:36:13.993Z,67.79
2023-03-29T18:38:42.981Z,68.17
2023-03-29T18:41:12.059Z,68.04
2023-03-29T18:43:39.858Z,67.86
2023-03-29T18:46:07.827Z,68.12
2023-03-29T18:48:39.494Z,68.36
2023-03-29T18:51:07.442Z,68.39
2023-03-29T18:53:35.791Z,68.11
2023-03-29T18:56:03.443Z,68.63
2023-03-29T18:58:30.634Z,68.16
2023-03-29T19:01:02.074Z,68.19
2023-03-29T19:03:28.775Z,68.40
2023-03-29T19:05:55.566Z,68.44
2023-03-29T19:08:23.174Z,68.63
2023-03-29T19:10:50.102Z,68.61
2023-03-29T19:13:16.730Z,68.77
2023-03-29T19:15:43.272Z,68.94
2023-03-29T19:18:10.087Z,69.06
2023-03-29T19:20:36.962Z,69.19
2023-03-29T19:23:04.450Z,69.47
2023-03-29T19:25:31.445Z,69.09
2023-03-29T19:27:57.936Z,68.88
2023-03-29T19:30:25.760Z,68.53
2023-03-29T19:32:52.846Z,69.05
2023-03-29T19:35:19.582Z,68.58
2023-03-29T19:37:46.217Z,67.80
2023-03-29T19:40:13.597Z,67.20
2023-03-29T19:42:43.306Z,67.43
2023-03-29T19:45:10.236Z,67.48
2023-03-29T19:47:37.178Z,67.53
2023-03-29T19:50:04.892Z,67.74
2023-03-29T19:52:31.440Z,67.86
2023-03-29T19:55:00.825Z,67.57
2023-03-29T19:57:28.231Z,67.33
2023-03-29T19:59:54.771Z,67.48
2023-03-29T20:02:21.310Z,67.49
2023-03-29T20:04:47.728Z,67.80
2023-03-29T20:07:14.439Z,67.76
2023-03-29T20:09:44.634Z,67.90
2023-03-29T20:12:11.912Z,67.74
2023-03-29T20:14:40.158Z,67.69
2023-03-29T20:17:07.284Z,67.59
2023-03-29T20:19:36.497Z,67.50
2023-03-29T20:22:04.410Z,67.14
2023-03-29T20:24:32.500Z,67.12
2023-03-29T20:26:59.049Z,67.55
2023-03-29T20:29:25.512Z,67.61
2023-03-29T20:31:52.027Z,67.64
2023-03-29T20:34:18.581Z,67.72
2023-03-29T20:36:48.106Z,67.74
2023-03-29T20:39:17.674Z,67.96
2023-03-29T20:41:47.429Z,67.68
2023-03-29T20:44:16.902Z,67.54
2023-03-29T20:47:02.133Z,67.66
2023-03-29T20:49:37.324Z,67.45
2023-03-29T20:52:15.418Z,67.73
2023-03-29T20:54:43.873Z,68.05
2023-03-29T20:57:16.080Z,68.33
2023-03-29T20:59:43.873Z,68.26
2023-03-29T21:02:22.001Z,68.16
2023-03-29T21:04:50.676Z,68.50
2023-03-29T21:07:17.657Z,68.07
2023-03-29T21:09:44.340Z,68.58
2023-03-29T21:12:11.285Z,68.81
2023-03-29T21:14:37.859Z,68.34
2023-03-29T21:17:04.342Z,69.16
2023-03-29T21:19:31.120Z,69.39
2023-03-29T21:21:58.041Z,69.54
2023-03-29T21:24:24.542Z,69.78
2023-03-29T21:26:51.011Z,70.68
2023-03-29T21:29:17.516Z,69.57
2023-03-29T21:31:43.996Z,70.02
2023-03-29T21:34:10.509Z,70.03
2023-03-29T21:36:37.036Z,70.43
2023-03-29T21:39:04.112Z,71.92
2023-03-29T21:41:30.560Z,72.15
2023-03-29T21:43:56.989Z,71.02
2023-03-29T21:46:24.643Z,71.80
2023-03-29T21:48:51.642Z,71.57
2023-03-29T21:51:18.064Z,72.13
2023-03-29T21:53:44.533Z,72.12
2023-03-29T21:56:12.231Z,72.75
2023-03-29T21:58:38.876Z,72.21
2023-03-29T22:01:07.319Z,72.42
2023-03-29T22:03:33.968Z,71.67
2023-03-29T22:06:02.816Z,72.84
2023-03-29T22:08:30.781Z,71.97
2023-03-29T22:10:57.669Z,71.29
2023-03-29T22:13:26.930Z,71.16
2023-03-29T22:16:01.550Z,71.26
2023-03-29T22:18:30.236Z,71.44
2023-03-29T22:20:57.283Z,72.09
2023-03-29T22:23:24.852Z,73.30
2023-03-29T22:25:51.675Z,74.02
2023-03-29T22:28:18.254Z,74.06
2023-03-29T22:30:44.711Z,73.67
2023-03-29T22:33:11.126Z,74.39
2023-03-29T22:35:37.700Z,74.83
2023-03-29T22:38:04.273Z,75.40
2023-03-29T22:40:33.168Z,75.53
2023-03-29T22:42:59.926Z,75.87
2023-03-29T22:45:26.399Z,76.30
2023-03-29T22:47:53.112Z,75.22
2023-03-29T22:50:19.608Z,76.29
2023-03-29T22:52:46.089Z,76.58
2023-03-29T22:55:12.634Z,76.66
2023-03-29T22:57:39.105Z,75.90
2023-03-29T23:00:09.008Z,76.01
2023-03-29T23:02:36.523Z,75.36
2023-03-29T23:05:03.229Z,75.81
2023-03-29T23:07:29.841Z,76.01
2023-03-29T23:09:56.465Z,75.14
2023-03-29T23:12:24.148Z,74.45
2023-03-29T23:14:53.162Z,74.42
2023-03-29T23:17:19.700Z,74.44
2023-03-29T23:19:46.568Z,74.58
2023-03-29T23:22:13.572Z,74.48
2023-03-29T23:24:40.240Z,75.09
2023-03-29T23:27:07.714Z,75.02
2023-03-29T23:29:34.524Z,74.88
2023-03-29T23:32:01.016Z,75.17
2023-03-29T23:34:28.100Z,75.09
2023-03-29T23:36:54.660Z,75.14
2023-03-29T23:39:21.124Z,74.87
2023-03-29T23:41:47.749Z,75.28
2023-03-29T23:44:14.174Z,75.42
2023-03-29T23:46:41.876Z,74.48
2023-03-29T23:49:09.868Z,75.09
2023-03-29T23:51:39.221Z,74.96
2023-03-29T23:54:06.245Z,74.87
2023-03-29T23:56:32.759Z,74.92
2023-03-29T23:58:59.285Z,75.33
